sensor_id;sensor_type;location;lat;lon;timestamp;temperature;humidity
8862;DHT22;4799;50.996;4.754;2023-04-25T00:01:25;8.60;99.90
8862;DHT22;4799;50.996;4.754;2023-04-25T00:03:50;8.60;99.90
8862;DHT22;4799;50.996;4.754;2023-04-25T00:06:16;8.60;99.90
8862;DHT22;4799;50.996;4.754;2023-04-25T00:08:43;8.60;99.90
8862;DHT22;4799;50.996;4.754;2023-04-25T00:11:09;8.60;99.90
8862;DHT22;4799;50.996;4.754;2023-04-25T00:13:35;8.60;99.90
8862;DHT22;4799;50.996;4.754;2023-04-25T00:16:01;8.60;99.90
8862;DHT22;4799;50.996;4.754;2023-04-25T00:18:28;8.60;99.90
8862;DHT22;4799;50.996;4.754;2023-04-25T00:20:55;8.60;99.90
8862;DHT22;4799;50.996;4.754;2023-04-25T00:23:21;8.60;99.90
8862;DHT22;4799;50.996;4.754;2023-04-25T00:25:48;8.60;99.90
8862;DHT22;4799;50.996;4.754;2023-04-25T00:28:14;8.60;99.90
8862;DHT22;4799;50.996;4.754;2023-04-25T00:30:41;8.60;99.90
8862;DHT22;4799;50.996;4.754;2023-04-25T00:33:07;8.60;99.90
8862;DHT22;4799;50.996;4.754;2023-04-25T00:35:34;8.60;99.90
8862;DHT22;4799;50.996;4.754;2023-04-25T00:37:59;8.60;99.90
8862;DHT22;4799;50.996;4.754;2023-04-25T00:40:26;8.60;99.90
8862;DHT22;4799;50.996;4.754;2023-04-25T00:42:52;8.60;99.90
8862;DHT22;4799;50.996;4.754;2023-04-25T00:45:19;8.60;99.90
8862;DHT22;4799;50.996;4.754;2023-04-25T00:47:45;8.60;99.90
8862;DHT22;4799;50.996;4.754;2023-04-25T00:50:12;8.50;99.90
8862;DHT22;4799;50.996;4.754;2023-04-25T00:52:43;8.60;99.90
8862;DHT22;4799;50.996;4.754;2023-04-25T00:55:10;8.60;99.90
8862;DHT22;4799;50.996;4.754;2023-04-25T00:57:36;8.50;99.90
8862;DHT22;4799;50.996;4.754;2023-04-25T01:00:04;8.50;99.90
8862;DHT22;4799;50.996;4.754;2023-04-25T01:02:32;8.50;99.90
8862;DHT22;4799;50.996;4.754;2023-04-25T01:04:58;8.50;99.90
8862;DHT22;4799;50.996;4.754;2023-04-25T01:07:24;8.50;99.90
8862;DHT22;4799;50.996;4.754;2023-04-25T01:09:51;8.50;99.90
8862;DHT22;4799;50.996;4.754;2023-04-25T01:12:17;8.50;99.90
8862;DHT22;4799;50.996;4.754;2023-04-25T01:14:43;8.40;99.90
8862;DHT22;4799;50.996;4.754;2023-04-25T01:17:10;8.40;99.90
8862;DHT22;4799;50.996;4.754;2023-04-25T01:19:36;8.40;99.90
8862;DHT22;4799;50.996;4.754;2023-04-25T01:22:01;8.40;99.90
8862;DHT22;4799;50.996;4.754;2023-04-25T01:24:27;8.40;99.90
8862;DHT22;4799;50.996;4.754;2023-04-25T01:26:54;8.40;99.90
8862;DHT22;4799;50.996;4.754;2023-04-25T01:29:22;8.40;99.90
8862;DHT22;4799;50.996;4.754;2023-04-25T01:31:48;8.30;99.90
8862;DHT22;4799;50.996;4.754;2023-04-25T01:34:15;8.30;99.90
8862;DHT22;4799;50.996;4.754;2023-04-25T01:36:41;8.30;99.90
8862;DHT22;4799;50.996;4.754;2023-04-25T01:39:07;8.30;99.90
8862;DHT22;4799;50.996;4.754;2023-04-25T01:41:33;8.30;99.90
8862;DHT22;4799;50.996;4.754;2023-04-25T01:44:03;8.30;99.90
8862;DHT22;4799;50.996;4.754;2023-04-25T01:46:29;8.30;99.90
8862;DHT22;4799;50.996;4.754;2023-04-25T01:48:55;8.30;99.90
8862;DHT22;4799;50.996;4.754;2023-04-25T01:51:21;8.30;99.90
8862;DHT22;4799;50.996;4.754;2023-04-25T01:53:46;8.30;99.90
8862;DHT22;4799;50.996;4.754;2023-04-25T01:56:12;8.30;99.90
8862;DHT22;4799;50.996;4.754;2023-04-25T01:58:38;8.30;99.90
8862;DHT22;4799;50.996;4.754;2023-04-25T02:01:04;8.30;99.90
8862;DHT22;4799;50.996;4.754;2023-04-25T02:03:31;8.30;99.90
8862;DHT22;4799;50.996;4.754;2023-04-25T02:05:57;8.30;99.90
8862;DHT22;4799;50.996;4.754;2023-04-25T02:08:22;8.20;99.90
8862;DHT22;4799;50.996;4.754;2023-04-25T02:10:48;8.20;99.90
8862;DHT22;4799;50.996;4.754;2023-04-25T02:13:14;8.20;99.90
8862;DHT22;4799;50.996;4.754;2023-04-25T02:15:40;8.20;99.90
8862;DHT22;4799;50.996;4.754;2023-04-25T02:18:06;8.20;99.90
8862;DHT22;4799;50.996;4.754;2023-04-25T02:20:32;8.20;99.90
8862;DHT22;4799;50.996;4.754;2023-04-25T02:22:58;8.20;99.90
8862;DHT22;4799;50.996;4.754;2023-04-25T02:25:24;8.10;99.90
8862;DHT22;4799;50.996;4.754;2023-04-25T02:27:50;8.10;99.90
8862;DHT22;4799;50.996;4.754;2023-04-25T02:30:17;8.10;99.90
8862;DHT22;4799;50.996;4.754;2023-04-25T02:32:42;8.10;99.90
8862;DHT22;4799;50.996;4.754;2023-04-25T02:35:09;8.10;99.90
8862;DHT22;4799;50.996;4.754;2023-04-25T02:37:36;8.10;99.90
8862;DHT22;4799;50.996;4.754;2023-04-25T02:40:02;8.10;99.90
8862;DHT22;4799;50.996;4.754;2023-04-25T02:42:29;8.10;99.90
8862;DHT22;4799;50.996;4.754;2023-04-25T02:44:55;8.10;99.90
8862;DHT22;4799;50.996;4.754;2023-04-25T02:47:21;8.10;99.90
8862;DHT22;4799;50.996;4.754;2023-04-25T02:49:47;8.10;99.90
8862;DHT22;4799;50.996;4.754;2023-04-25T02:52:13;8.10;99.90
8862;DHT22;4799;50.996;4.754;2023-04-25T02:54:40;8.10;99.90
8862;DHT22;4799;50.996;4.754;2023-04-25T02:57:06;8.00;99.90
8862;DHT22;4799;50.996;4.754;2023-04-25T02:59:32;8.10;99.90
8862;DHT22;4799;50.996;4.754;2023-04-25T03:01:58;8.00;99.90
8862;DHT22;4799;50.996;4.754;2023-04-25T03:04:23;8.00;99.90
8862;DHT22;4799;50.996;4.754;2023-04-25T03:06:50;8.00;99.90
8862;DHT22;4799;50.996;4.754;2023-04-25T03:09:16;8.10;99.90
8862;DHT22;4799;50.996;4.754;2023-04-25T03:11:42;8.00;99.90
8862;DHT22;4799;50.996;4.754;2023-04-25T03:14:07;8.00;99.90
8862;DHT22;4799;50.996;4.754;2023-04-25T03:16:33;8.00;99.90
8862;DHT22;4799;50.996;4.754;2023-04-25T03:18:59;8.00;99.90
8862;DHT22;4799;50.996;4.754;2023-04-25T03:21:25;7.90;99.90
8862;DHT22;4799;50.996;4.754;2023-04-25T03:23:52;7.90;99.90
8862;DHT22;4799;50.996;4.754;2023-04-25T03:26:17;7.90;99.90
8862;DHT22;4799;50.996;4.754;2023-04-25T03:28:43;7.90;99.90
8862;DHT22;4799;50.996;4.754;2023-04-25T03:31:09;7.90;99.90
8862;DHT22;4799;50.996;4.754;2023-04-25T03:33:35;7.80;99.90
8862;DHT22;4799;50.996;4.754;2023-04-25T03:36:00;7.70;99.90
8862;DHT22;4799;50.996;4.754;2023-04-25T03:38:29;7.60;99.90
8862;DHT22;4799;50.996;4.754;2023-04-25T03:40:55;7.60;99.90
8862;DHT22;4799;50.996;4.754;2023-04-25T03:43:21;7.50;99.90
8862;DHT22;4799;50.996;4.754;2023-04-25T03:45:47;7.50;99.90
8862;DHT22;4799;50.996;4.754;2023-04-25T03:48:13;7.40;99.90
8862;DHT22;4799;50.996;4.754;2023-04-25T03:50:39;7.40;99.90
8862;DHT22;4799;50.996;4.754;2023-04-25T03:53:04;7.40;99.90
8862;DHT22;4799;50.996;4.754;2023-04-25T03:55:30;7.40;99.90
8862;DHT22;4799;50.996;4.754;2023-04-25T03:57:57;7.40;99.90
8862;DHT22;4799;50.996;4.754;2023-04-25T04:00:24;7.40;99.90
8862;DHT22;4799;50.996;4.754;2023-04-25T04:02:50;7.40;99.90
8862;DHT22;4799;50.996;4.754;2023-04-25T04:05:15;7.40;99.90
8862;DHT22;4799;50.996;4.754;2023-04-25T04:07:41;7.40;99.90
8862;DHT22;4799;50.996;4.754;2023-04-25T04:10:09;7.40;99.90
8862;DHT22;4799;50.996;4.754;2023-04-25T04:12:35;7.40;99.90
8862;DHT22;4799;50.996;4.754;2023-04-25T04:15:03;7.40;99.90
8862;DHT22;4799;50.996;4.754;2023-04-25T04:17:32;7.40;99.90
8862;DHT22;4799;50.996;4.754;2023-04-25T04:19:58;7.40;99.90
8862;DHT22;4799;50.996;4.754;2023-04-25T04:22:24;7.50;99.90
8862;DHT22;4799;50.996;4.754;2023-04-25T04:24:50;7.50;99.90
8862;DHT22;4799;50.996;4.754;2023-04-25T04:27:19;7.50;99.90
8862;DHT22;4799;50.996;4.754;2023-04-25T04:29:45;7.50;99.90
8862;DHT22;4799;50.996;4.754;2023-04-25T04:32:12;7.50;99.90
8862;DHT22;4799;50.996;4.754;2023-04-25T04:34:38;7.50;99.90
8862;DHT22;4799;50.996;4.754;2023-04-25T04:37:05;7.50;99.90
8862;DHT22;4799;50.996;4.754;2023-04-25T04:39:32;7.50;99.90
8862;DHT22;4799;50.996;4.754;2023-04-25T04:41:58;7.50;99.90
8862;DHT22;4799;50.996;4.754;2023-04-25T04:44:25;7.50;99.90
8862;DHT22;4799;50.996;4.754;2023-04-25T04:46:51;7.50;99.90
8862;DHT22;4799;50.996;4.754;2023-04-25T04:49:17;7.50;99.90
8862;DHT22;4799;50.996;4.754;2023-04-25T04:51:43;7.40;99.90
8862;DHT22;4799;50.996;4.754;2023-04-25T04:54:12;7.50;99.90
8862;DHT22;4799;50.996;4.754;2023-04-25T04:56:38;7.50;99.90
8862;DHT22;4799;50.996;4.754;2023-04-25T04:59:04;7.50;99.90
8862;DHT22;4799;50.996;4.754;2023-04-25T05:01:30;7.50;99.90
8862;DHT22;4799;50.996;4.754;2023-04-25T05:03:56;7.50;99.90
8862;DHT22;4799;50.996;4.754;2023-04-25T05:06:27;7.50;99.90
8862;DHT22;4799;50.996;4.754;2023-04-25T05:08:54;7.50;99.90
8862;DHT22;4799;50.996;4.754;2023-04-25T05:11:20;7.50;99.90
8862;DHT22;4799;50.996;4.754;2023-04-25T05:13:46;7.50;99.90
8862;DHT22;4799;50.996;4.754;2023-04-25T05:16:12;7.50;99.90
8862;DHT22;4799;50.996;4.754;2023-04-25T05:18:39;7.60;99.90
8862;DHT22;4799;50.996;4.754;2023-04-25T05:21:05;7.60;99.90
8862;DHT22;4799;50.996;4.754;2023-04-25T05:23:32;7.60;99.90
8862;DHT22;4799;50.996;4.754;2023-04-25T05:25:58;7.60;99.90
8862;DHT22;4799;50.996;4.754;2023-04-25T05:28:24;7.60;99.90
8862;DHT22;4799;50.996;4.754;2023-04-25T05:30:51;7.60;99.90
8862;DHT22;4799;50.996;4.754;2023-04-25T05:33:17;7.60;99.90
8862;DHT22;4799;50.996;4.754;2023-04-25T05:35:42;7.70;99.90
8862;DHT22;4799;50.996;4.754;2023-04-25T05:38:08;7.70;99.90
8862;DHT22;4799;50.996;4.754;2023-04-25T05:40:34;7.80;99.90
8862;DHT22;4799;50.996;4.754;2023-04-25T05:43:00;7.80;99.90
8862;DHT22;4799;50.996;4.754;2023-04-25T05:45:26;7.90;99.90
8862;DHT22;4799;50.996;4.754;2023-04-25T05:47:52;8.00;99.90
8862;DHT22;4799;50.996;4.754;2023-04-25T05:50:17;8.10;99.90
8862;DHT22;4799;50.996;4.754;2023-04-25T05:52:43;8.20;99.90
8862;DHT22;4799;50.996;4.754;2023-04-25T05:55:09;8.30;99.90
8862;DHT22;4799;50.996;4.754;2023-04-25T05:57:35;8.40;99.90
8862;DHT22;4799;50.996;4.754;2023-04-25T06:00:01;8.50;99.90
8862;DHT22;4799;50.996;4.754;2023-04-25T06:02:27;8.60;99.90
8862;DHT22;4799;50.996;4.754;2023-04-25T06:04:52;8.60;99.90
8862;DHT22;4799;50.996;4.754;2023-04-25T06:07:19;8.60;99.90
8862;DHT22;4799;50.996;4.754;2023-04-25T06:09:45;8.70;99.90
8862;DHT22;4799;50.996;4.754;2023-04-25T06:12:11;8.70;99.90
8862;DHT22;4799;50.996;4.754;2023-04-25T06:14:37;8.80;99.90
8862;DHT22;4799;50.996;4.754;2023-04-25T06:17:03;8.90;99.90
8862;DHT22;4799;50.996;4.754;2023-04-25T06:19:34;9.00;99.90
8862;DHT22;4799;50.996;4.754;2023-04-25T06:22:01;9.00;99.90
8862;DHT22;4799;50.996;4.754;2023-04-25T06:24:27;9.10;99.90
8862;DHT22;4799;50.996;4.754;2023-04-25T06:26:53;9.10;99.90
8862;DHT22;4799;50.996;4.754;2023-04-25T06:29:19;9.10;99.90
8862;DHT22;4799;50.996;4.754;2023-04-25T06:31:44;9.10;99.90
8862;DHT22;4799;50.996;4.754;2023-04-25T06:34:10;9.10;99.90
8862;DHT22;4799;50.996;4.754;2023-04-25T06:36:36;9.10;99.90
8862;DHT22;4799;50.996;4.754;2023-04-25T06:39:02;9.10;99.90
8862;DHT22;4799;50.996;4.754;2023-04-25T06:41:28;9.20;99.90
8862;DHT22;4799;50.996;4.754;2023-04-25T06:43:53;9.20;99.90
8862;DHT22;4799;50.996;4.754;2023-04-25T06:46:19;9.20;99.90
8862;DHT22;4799;50.996;4.754;2023-04-25T06:48:45;9.30;99.90
8862;DHT22;4799;50.996;4.754;2023-04-25T06:51:11;9.40;99.90
8862;DHT22;4799;50.996;4.754;2023-04-25T06:53:39;9.40;99.90
8862;DHT22;4799;50.996;4.754;2023-04-25T06:56:05;9.40;99.90
8862;DHT22;4799;50.996;4.754;2023-04-25T06:58:30;9.50;99.90
8862;DHT22;4799;50.996;4.754;2023-04-25T07:00:56;9.50;99.90
8862;DHT22;4799;50.996;4.754;2023-04-25T07:03:22;9.50;99.90
8862;DHT22;4799;50.996;4.754;2023-04-25T07:05:48;9.50;99.90
8862;DHT22;4799;50.996;4.754;2023-04-25T07:08:14;9.60;99.90
8862;DHT22;4799;50.996;4.754;2023-04-25T07:10:39;9.60;99.90
8862;DHT22;4799;50.996;4.754;2023-04-25T07:13:05;9.70;99.90
8862;DHT22;4799;50.996;4.754;2023-04-25T07:15:31;9.70;99.90
8862;DHT22;4799;50.996;4.754;2023-04-25T07:17:56;9.80;99.90
8862;DHT22;4799;50.996;4.754;2023-04-25T07:20:22;9.90;99.90
8862;DHT22;4799;50.996;4.754;2023-04-25T07:22:48;10.10;99.90
8862;DHT22;4799;50.996;4.754;2023-04-25T07:25:15;10.20;99.90
8862;DHT22;4799;50.996;4.754;2023-04-25T07:27:41;10.40;99.90
8862;DHT22;4799;50.996;4.754;2023-04-25T07:30:07;10.50;99.90
8862;DHT22;4799;50.996;4.754;2023-04-25T07:32:33;10.60;99.90
8862;DHT22;4799;50.996;4.754;2023-04-25T07:34:59;10.70;99.90
8862;DHT22;4799;50.996;4.754;2023-04-25T07:37:25;10.70;99.90
8862;DHT22;4799;50.996;4.754;2023-04-25T07:39:51;10.70;99.90
8862;DHT22;4799;50.996;4.754;2023-04-25T07:42:17;10.70;99.90
8862;DHT22;4799;50.996;4.754;2023-04-25T07:44:43;10.70;99.90
8862;DHT22;4799;50.996;4.754;2023-04-25T07:47:09;10.70;99.90
8862;DHT22;4799;50.996;4.754;2023-04-25T07:49:36;10.80;99.90
8862;DHT22;4799;50.996;4.754;2023-04-25T07:52:03;10.90;99.90
8862;DHT22;4799;50.996;4.754;2023-04-25T07:54:29;10.90;99.90
8862;DHT22;4799;50.996;4.754;2023-04-25T07:56:55;10.90;99.90
8862;DHT22;4799;50.996;4.754;2023-04-25T07:59:21;11.00;99.90
8862;DHT22;4799;50.996;4.754;2023-04-25T08:01:47;11.00;99.90
8862;DHT22;4799;50.996;4.754;2023-04-25T08:04:13;10.90;99.90
8862;DHT22;4799;50.996;4.754;2023-04-25T08:06:39;10.90;99.90
8862;DHT22;4799;50.996;4.754;2023-04-25T08:09:06;10.90;99.90
8862;DHT22;4799;50.996;4.754;2023-04-25T08:11:31;10.90;99.60
8862;DHT22;4799;50.996;4.754;2023-04-25T08:13:57;10.80;98.80
8862;DHT22;4799;50.996;4.754;2023-04-25T08:16:23;10.90;99.20
8862;DHT22;4799;50.996;4.754;2023-04-25T08:18:50;11.00;99.50
8862;DHT22;4799;50.996;4.754;2023-04-25T08:21:16;11.20;98.50
8862;DHT22;4799;50.996;4.754;2023-04-25T08:23:42;11.20;97.10
8862;DHT22;4799;50.996;4.754;2023-04-25T08:26:07;11.40;96.80
8862;DHT22;4799;50.996;4.754;2023-04-25T08:28:33;11.50;96.10
8862;DHT22;4799;50.996;4.754;2023-04-25T08:30:59;11.50;96.10
8862;DHT22;4799;50.996;4.754;2023-04-25T08:33:28;11.60;94.40
8862;DHT22;4799;50.996;4.754;2023-04-25T08:35:54;11.60;94.40
8862;DHT22;4799;50.996;4.754;2023-04-25T08:38:20;11.60;93.90
8862;DHT22;4799;50.996;4.754;2023-04-25T08:40:49;11.60;94.00
8862;DHT22;4799;50.996;4.754;2023-04-25T08:43:18;11.80;94.40
8862;DHT22;4799;50.996;4.754;2023-04-25T08:45:44;12.00;94.20
8862;DHT22;4799;50.996;4.754;2023-04-25T08:48:13;12.10;93.00
8862;DHT22;4799;50.996;4.754;2023-04-25T08:51:06;12.10;91.90
8862;DHT22;4799;50.996;4.754;2023-04-25T08:53:33;12.30;88.30
8862;DHT22;4799;50.996;4.754;2023-04-25T08:56:01;12.30;90.80
8862;DHT22;4799;50.996;4.754;2023-04-25T08:58:32;12.40;90.20
8862;DHT22;4799;50.996;4.754;2023-04-25T09:00:58;12.50;90.00
8862;DHT22;4799;50.996;4.754;2023-04-25T09:03:23;12.40;86.40
8862;DHT22;4799;50.996;4.754;2023-04-25T09:05:49;12.40;84.70
8862;DHT22;4799;50.996;4.754;2023-04-25T09:08:16;12.20;86.40
8862;DHT22;4799;50.996;4.754;2023-04-25T09:10:42;12.20;83.90
8862;DHT22;4799;50.996;4.754;2023-04-25T09:13:12;12.00;85.10
8862;DHT22;4799;50.996;4.754;2023-04-25T09:15:48;11.80;87.00
8862;DHT22;4799;50.996;4.754;2023-04-25T09:18:39;11.70;90.10
8862;DHT22;4799;50.996;4.754;2023-04-25T09:21:08;11.50;92.10
8862;DHT22;4799;50.996;4.754;2023-04-25T09:23:43;11.40;92.80
8862;DHT22;4799;50.996;4.754;2023-04-25T09:26:09;11.20;93.00
8862;DHT22;4799;50.996;4.754;2023-04-25T09:28:35;11.20;93.30
8862;DHT22;4799;50.996;4.754;2023-04-25T09:31:01;11.20;93.90
8862;DHT22;4799;50.996;4.754;2023-04-25T09:33:32;11.20;96.00
8862;DHT22;4799;50.996;4.754;2023-04-25T09:36:16;11.10;97.90
8862;DHT22;4799;50.996;4.754;2023-04-25T09:38:46;11.00;97.70
8862;DHT22;4799;50.996;4.754;2023-04-25T09:41:12;10.80;98.60
8862;DHT22;4799;50.996;4.754;2023-04-25T09:43:39;10.70;99.90
8862;DHT22;4799;50.996;4.754;2023-04-25T09:46:11;10.60;99.90
8862;DHT22;4799;50.996;4.754;2023-04-25T09:48:37;10.40;99.90
8862;DHT22;4799;50.996;4.754;2023-04-25T09:51:17;10.20;99.90
8862;DHT22;4799;50.996;4.754;2023-04-25T09:53:45;10.10;99.90
8862;DHT22;4799;50.996;4.754;2023-04-25T09:56:12;10.00;99.90
8862;DHT22;4799;50.996;4.754;2023-04-25T09:58:39;10.10;99.90
8862;DHT22;4799;50.996;4.754;2023-04-25T10:01:08;10.10;99.40
8862;DHT22;4799;50.996;4.754;2023-04-25T10:03:36;10.20;98.60
8862;DHT22;4799;50.996;4.754;2023-04-25T10:06:07;10.30;98.30
8862;DHT22;4799;50.996;4.754;2023-04-25T10:08:37;10.40;97.10
8862;DHT22;4799;50.996;4.754;2023-04-25T10:11:04;10.60;96.40
8862;DHT22;4799;50.996;4.754;2023-04-25T10:13:32;10.80;95.70
8862;DHT22;4799;50.996;4.754;2023-04-25T10:16:03;10.90;93.10
8862;DHT22;4799;50.996;4.754;2023-04-25T10:18:29;11.00;91.40
8862;DHT22;4799;50.996;4.754;2023-04-25T10:21:00;11.20;91.20
8862;DHT22;4799;50.996;4.754;2023-04-25T10:23:27;11.30;90.30
8862;DHT22;4799;50.996;4.754;2023-04-25T10:25:55;11.40;89.90
8862;DHT22;4799;50.996;4.754;2023-04-25T10:28:21;11.60;86.20
8862;DHT22;4799;50.996;4.754;2023-04-25T10:31:08;11.80;83.60
8862;DHT22;4799;50.996;4.754;2023-04-25T10:33:38;11.90;79.30
8862;DHT22;4799;50.996;4.754;2023-04-25T10:36:15;11.90;76.80
8862;DHT22;4799;50.996;4.754;2023-04-25T10:38:44;12.20;77.70
8862;DHT22;4799;50.996;4.754;2023-04-25T10:41:11;12.30;72.10
8862;DHT22;4799;50.996;4.754;2023-04-25T10:43:41;12.60;70.70
8862;DHT22;4799;50.996;4.754;2023-04-25T10:46:19;12.80;68.00
8862;DHT22;4799;50.996;4.754;2023-04-25T10:48:52;13.00;68.60
8862;DHT22;4799;50.996;4.754;2023-04-25T10:51:23;13.20;67.60
8862;DHT22;4799;50.996;4.754;2023-04-25T10:58:48;13.20;67.70
8862;DHT22;4799;50.996;4.754;2023-04-25T11:01:15;13.30;68.80
8862;DHT22;4799;50.996;4.754;2023-04-25T11:03:44;13.20;68.80
8862;DHT22;4799;50.996;4.754;2023-04-25T11:06:28;13.30;69.50
8862;DHT22;4799;50.996;4.754;2023-04-25T11:08:55;13.50;68.90
8862;DHT22;4799;50.996;4.754;2023-04-25T11:11:20;13.60;69.50
8862;DHT22;4799;50.996;4.754;2023-04-25T11:13:50;13.50;66.00
8862;DHT22;4799;50.996;4.754;2023-04-25T11:16:16;13.40;65.50
8862;DHT22;4799;50.996;4.754;2023-04-25T11:18:44;13.30;66.10
8862;DHT22;4799;50.996;4.754;2023-04-25T11:21:10;13.10;66.40
8862;DHT22;4799;50.996;4.754;2023-04-25T11:23:36;12.90;68.00
8862;DHT22;4799;50.996;4.754;2023-04-25T11:26:03;12.80;69.20
8862;DHT22;4799;50.996;4.754;2023-04-25T11:28:29;12.60;77.70
8862;DHT22;4799;50.996;4.754;2023-04-25T11:30:56;12.30;79.80
8862;DHT22;4799;50.996;4.754;2023-04-25T11:33:25;12.00;78.60
8862;DHT22;4799;50.996;4.754;2023-04-25T11:35:55;11.80;79.70
8862;DHT22;4799;50.996;4.754;2023-04-25T11:38:24;11.60;85.90
8862;DHT22;4799;50.996;4.754;2023-04-25T11:40:52;11.60;87.50
8862;DHT22;4799;50.996;4.754;2023-04-25T11:43:20;11.70;87.60
8862;DHT22;4799;50.996;4.754;2023-04-25T11:45:47;11.90;85.90
8862;DHT22;4799;50.996;4.754;2023-04-25T11:48:13;12.00;84.80
8862;DHT22;4799;50.996;4.754;2023-04-25T11:50:39;12.10;82.00
8862;DHT22;4799;50.996;4.754;2023-04-25T11:53:05;12.30;81.10
8862;DHT22;4799;50.996;4.754;2023-04-25T11:55:31;12.30;78.00
8862;DHT22;4799;50.996;4.754;2023-04-25T11:58:00;12.40;75.60
8862;DHT22;4799;50.996;4.754;2023-04-25T12:00:26;12.50;74.20
8862;DHT22;4799;50.996;4.754;2023-04-25T12:02:53;12.80;73.20
8862;DHT22;4799;50.996;4.754;2023-04-25T12:05:23;13.20;72.00
8862;DHT22;4799;50.996;4.754;2023-04-25T12:07:49;13.30;69.70
8862;DHT22;4799;50.996;4.754;2023-04-25T12:10:16;13.60;68.80
8862;DHT22;4799;50.996;4.754;2023-04-25T12:12:47;13.70;66.10
8862;DHT22;4799;50.996;4.754;2023-04-25T12:17:52;13.70;62.30
8862;DHT22;4799;50.996;4.754;2023-04-25T12:20:24;13.60;61.20
8862;DHT22;4799;50.996;4.754;2023-04-25T12:22:51;13.70;61.10
8862;DHT22;4799;50.996;4.754;2023-04-25T12:28:15;13.70;61.10
8862;DHT22;4799;50.996;4.754;2023-04-25T12:31:03;13.50;60.20
8862;DHT22;4799;50.996;4.754;2023-04-25T12:33:34;13.30;60.10
8862;DHT22;4799;50.996;4.754;2023-04-25T12:36:01;13.20;61.40
8862;DHT22;4799;50.996;4.754;2023-04-25T12:38:41;13.10;62.90
8862;DHT22;4799;50.996;4.754;2023-04-25T12:41:08;13.00;62.20
8862;DHT22;4799;50.996;4.754;2023-04-25T12:43:34;12.90;62.10
8862;DHT22;4799;50.996;4.754;2023-04-25T12:46:00;12.90;60.40
8862;DHT22;4799;50.996;4.754;2023-04-25T12:48:26;12.80;58.90
8862;DHT22;4799;50.996;4.754;2023-04-25T12:50:52;12.90;59.50
8862;DHT22;4799;50.996;4.754;2023-04-25T12:53:23;13.00;59.80
8862;DHT22;4799;50.996;4.754;2023-04-25T12:55:50;13.20;61.10
8862;DHT22;4799;50.996;4.754;2023-04-25T12:58:17;13.40;59.90
8862;DHT22;4799;50.996;4.754;2023-04-25T13:00:44;13.40;57.70
8862;DHT22;4799;50.996;4.754;2023-04-25T13:03:10;13.50;58.50
8862;DHT22;4799;50.996;4.754;2023-04-25T13:05:37;13.60;59.40
8862;DHT22;4799;50.996;4.754;2023-04-25T13:08:03;13.50;59.00
8862;DHT22;4799;50.996;4.754;2023-04-25T13:10:29;13.50;58.00
8862;DHT22;4799;50.996;4.754;2023-04-25T13:12:55;13.40;58.00
8862;DHT22;4799;50.996;4.754;2023-04-25T13:15:21;13.30;58.20
8862;DHT22;4799;50.996;4.754;2023-04-25T13:17:47;13.20;58.20
8862;DHT22;4799;50.996;4.754;2023-04-25T13:20:13;13.20;58.80
8862;DHT22;4799;50.996;4.754;2023-04-25T13:22:41;13.20;58.10
8862;DHT22;4799;50.996;4.754;2023-04-25T13:25:07;13.20;57.20
8862;DHT22;4799;50.996;4.754;2023-04-25T13:27:34;13.20;56.10
8862;DHT22;4799;50.996;4.754;2023-04-25T13:30:01;13.30;56.20
8862;DHT22;4799;50.996;4.754;2023-04-25T13:32:35;13.30;56.20
8862;DHT22;4799;50.996;4.754;2023-04-25T13:35:05;13.40;56.20
8862;DHT22;4799;50.996;4.754;2023-04-25T13:37:31;13.50;56.50
8862;DHT22;4799;50.996;4.754;2023-04-25T13:40:08;13.70;56.70
8862;DHT22;4799;50.996;4.754;2023-04-25T13:42:36;13.80;55.60
8862;DHT22;4799;50.996;4.754;2023-04-25T13:45:02;14.10;56.00
8862;DHT22;4799;50.996;4.754;2023-04-25T13:47:29;14.10;55.50
8862;DHT22;4799;50.996;4.754;2023-04-25T13:49:55;14.00;54.20
8862;DHT22;4799;50.996;4.754;2023-04-25T13:52:21;14.00;54.10
8862;DHT22;4799;50.996;4.754;2023-04-25T13:54:49;13.90;53.80
8862;DHT22;4799;50.996;4.754;2023-04-25T13:57:16;13.80;54.50
8862;DHT22;4799;50.996;4.754;2023-04-25T13:59:42;13.80;54.90
8862;DHT22;4799;50.996;4.754;2023-04-25T14:02:07;13.80;55.10
8862;DHT22;4799;50.996;4.754;2023-04-25T14:04:33;13.70;54.70
8862;DHT22;4799;50.996;4.754;2023-04-25T14:06:59;13.60;56.20
8862;DHT22;4799;50.996;4.754;2023-04-25T14:09:25;13.50;57.00
8862;DHT22;4799;50.996;4.754;2023-04-25T14:11:52;13.50;57.60
8862;DHT22;4799;50.996;4.754;2023-04-25T14:14:19;13.60;58.10
8862;DHT22;4799;50.996;4.754;2023-04-25T14:16:46;13.60;58.10
8862;DHT22;4799;50.996;4.754;2023-04-25T14:19:14;13.70;58.40
8862;DHT22;4799;50.996;4.754;2023-04-25T14:21:40;13.80;58.10
8862;DHT22;4799;50.996;4.754;2023-04-25T14:24:06;13.80;57.00
8862;DHT22;4799;50.996;4.754;2023-04-25T14:26:33;13.70;55.20
8862;DHT22;4799;50.996;4.754;2023-04-25T14:29:00;13.80;55.50
8862;DHT22;4799;50.996;4.754;2023-04-25T14:31:26;13.80;55.20
8862;DHT22;4799;50.996;4.754;2023-04-25T14:33:53;13.90;54.90
8862;DHT22;4799;50.996;4.754;2023-04-25T14:36:19;13.80;55.20
8862;DHT22;4799;50.996;4.754;2023-04-25T14:38:44;13.60;55.00
8862;DHT22;4799;50.996;4.754;2023-04-25T14:41:11;13.50;55.40
8862;DHT22;4799;50.996;4.754;2023-04-25T14:43:36;13.50;56.00
8862;DHT22;4799;50.996;4.754;2023-04-25T14:46:02;13.40;56.50
8862;DHT22;4799;50.996;4.754;2023-04-25T14:48:29;13.50;57.20
8862;DHT22;4799;50.996;4.754;2023-04-25T14:50:55;13.50;57.80
8862;DHT22;4799;50.996;4.754;2023-04-25T14:53:22;13.60;57.50
8862;DHT22;4799;50.996;4.754;2023-04-25T14:55:48;13.60;57.50
8862;DHT22;4799;50.996;4.754;2023-04-25T14:58:14;13.50;56.30
8862;DHT22;4799;50.996;4.754;2023-04-25T15:00:40;13.50;56.40
8862;DHT22;4799;50.996;4.754;2023-04-25T15:03:06;13.40;56.70
8862;DHT22;4799;50.996;4.754;2023-04-25T15:05:33;13.40;56.10
8862;DHT22;4799;50.996;4.754;2023-04-25T15:07:59;13.50;56.50
8862;DHT22;4799;50.996;4.754;2023-04-25T15:10:25;13.70;57.00
8862;DHT22;4799;50.996;4.754;2023-04-25T15:12:51;13.70;55.60
8862;DHT22;4799;50.996;4.754;2023-04-25T15:15:19;13.70;55.40
8862;DHT22;4799;50.996;4.754;2023-04-25T15:17:45;13.70;55.10
8862;DHT22;4799;50.996;4.754;2023-04-25T15:20:12;13.70;55.30
8862;DHT22;4799;50.996;4.754;2023-04-25T15:22:42;13.70;55.70
8862;DHT22;4799;50.996;4.754;2023-04-25T15:25:09;13.60;55.20
8862;DHT22;4799;50.996;4.754;2023-04-25T15:27:39;13.40;55.80
8862;DHT22;4799;50.996;4.754;2023-04-25T15:30:13;13.40;56.40
8862;DHT22;4799;50.996;4.754;2023-04-25T15:32:41;13.30;56.60
8862;DHT22;4799;50.996;4.754;2023-04-25T15:35:08;13.30;56.60
8862;DHT22;4799;50.996;4.754;2023-04-25T15:37:34;13.30;56.70
8862;DHT22;4799;50.996;4.754;2023-04-25T15:40:06;13.40;56.90
8862;DHT22;4799;50.996;4.754;2023-04-25T15:42:37;13.30;57.00
8862;DHT22;4799;50.996;4.754;2023-04-25T15:45:05;13.30;56.50
8862;DHT22;4799;50.996;4.754;2023-04-25T15:47:31;13.30;56.50
8862;DHT22;4799;50.996;4.754;2023-04-25T15:49:58;13.30;57.20
8862;DHT22;4799;50.996;4.754;2023-04-25T15:52:23;13.20;57.40
8862;DHT22;4799;50.996;4.754;2023-04-25T15:54:49;13.20;57.80
8862;DHT22;4799;50.996;4.754;2023-04-25T15:57:15;13.20;58.10
8862;DHT22;4799;50.996;4.754;2023-04-25T15:59:41;13.20;58.70
8862;DHT22;4799;50.996;4.754;2023-04-25T16:02:07;13.10;58.30
8862;DHT22;4799;50.996;4.754;2023-04-25T16:04:34;13.00;57.50
8862;DHT22;4799;50.996;4.754;2023-04-25T16:07:03;13.00;57.50
8862;DHT22;4799;50.996;4.754;2023-04-25T16:09:30;12.90;57.50
8862;DHT22;4799;50.996;4.754;2023-04-25T16:11:56;12.90;57.70
8862;DHT22;4799;50.996;4.754;2023-04-25T16:14:21;12.90;57.90
8862;DHT22;4799;50.996;4.754;2023-04-25T16:16:48;12.90;57.50
8862;DHT22;4799;50.996;4.754;2023-04-25T16:19:14;12.90;57.50